Time;durP1;ratioP1;P1;durP2;ratioP2;P2;SDS_P1;SDS_P2;PMS_P1;PMS_P2;Temp;Humidity;BMP_temperature;BMP_pressure;BME280_temperature;BME280_humidity;BME280_pressure;Samples;Min_cycle;Max_cycle;Signal;HPM_P1;HPM_P2
2021/03/11 00:00:03;;;;;;;;;26.75;24.00;;;;;-142.71;100.00;64517.53;3725330;38;21118;-60
2021/03/11 00:02:31;;;;;;;;;27.75;24.00;;;;;-142.71;100.00;64517.53;3725037;38;21097;-60
2021/03/11 00:04:57;;;;;;;;;30.50;24.50;;;;;-142.71;100.00;64517.53;3725485;38;21078;-61
2021/03/11 00:07:26;;;;;;;;;29.00;23.25;;;;;-142.71;100.00;64517.53;3725535;37;21107;-61
2021/03/11 00:09:58;;;;;;;;;26.50;22.25;;;;;-142.71;100.00;64517.53;3725078;37;21075;-61
2021/03/11 00:12:24;;;;;;;;;20.75;17.25;;;;;-142.71;100.00;64517.53;3725441;38;21078;-61
2021/03/11 00:14:53;;;;;;;;;27.00;23.00;;;;;-142.71;100.00;64517.53;3725102;37;21090;-60
2021/03/11 00:17:19;;;;;;;;;26.00;18.25;;;;;-142.71;100.00;64517.53;3725093;37;21095;-60
2021/03/11 00:19:45;;;;;;;;;21.75;18.75;;;;;-142.71;100.00;64517.53;3725412;38;21154;-60
2021/03/11 00:22:12;;;;;;;;;22.75;18.00;;;;;-142.71;100.00;64517.53;3725405;38;21081;-61
2021/03/11 00:24:38;;;;;;;;;22.50;20.00;;;;;-142.71;100.00;64517.53;3725410;37;21048;-61
2021/03/11 00:27:05;;;;;;;;;26.50;22.50;;;;;-142.71;100.00;64517.53;3725181;37;21615;-59
2021/03/11 00:29:32;;;;;;;;;22.00;17.00;;;;;-142.71;100.00;64517.53;3725108;38;21622;-60
2021/03/11 00:32:05;;;;;;;;;25.50;22.50;;;;;-142.71;100.00;64517.53;3724971;38;21628;-60
2021/03/11 00:34:40;;;;;;;;;20.50;18.25;;;;;-142.71;100.00;64517.53;3725098;38;21597;-60
2021/03/11 00:37:32;;;;;;;;;26.00;19.25;;;;;-142.71;100.00;64517.53;3725077;37;21594;-60
2021/03/11 00:39:58;;;;;;;;;19.75;18.25;;;;;-142.71;100.00;64517.53;3725356;37;21596;-60
2021/03/11 00:42:25;;;;;;;;;27.00;22.50;;;;;-142.71;100.00;64517.53;3725556;38;21605;-60
2021/03/11 00:44:52;;;;;;;;;25.25;20.50;;;;;-142.71;100.00;64517.53;3724745;37;21584;-61
2021/03/11 00:47:20;;;;;;;;;28.25;22.50;;;;;-142.71;100.00;64517.53;3724838;38;21593;-61
2021/03/11 00:49:46;;;;;;;;;19.00;18.00;;;;;-142.71;100.00;64517.53;3725229;38;21592;-60
2021/03/11 00:52:13;;;;;;;;;21.25;18.00;;;;;-142.71;100.00;64517.53;3725266;37;21589;-60
2021/03/11 00:54:40;;;;;;;;;21.00;16.50;;;;;-142.71;100.00;64517.53;3725207;37;21593;-60
2021/03/11 00:57:08;;;;;;;;;22.25;20.00;;;;;-142.71;100.00;64517.53;3725163;38;21580;-61
2021/03/11 00:59:36;;;;;;;;;24.00;22.00;;;;;-142.71;100.00;64517.53;3724278;37;21571;-60
2021/03/11 01:02:04;;;;;;;;;23.25;19.75;;;;;-142.71;100.00;64517.53;3724557;37;21581;-59
2021/03/11 01:04:30;;;;;;;;;19.00;18.00;;;;;-142.71;100.00;64517.53;3725021;37;21599;-60
2021/03/11 01:06:56;;;;;;;;;26.00;22.75;;;;;-142.71;100.00;64517.53;3724986;38;21584;-60
2021/03/11 01:09:23;;;;;;;;;25.25;21.25;;;;;-142.71;100.00;64517.53;3725079;38;21583;-60
2021/03/11 01:11:50;;;;;;;;;19.25;19.00;;;;;-142.71;100.00;64517.53;3725253;37;21565;-60
2021/03/11 01:14:17;;;;;;;;;25.00;19.00;;;;;-142.71;100.00;64517.53;3724760;37;21570;-61
2021/03/11 01:16:52;;;;;;;;;23.75;19.00;;;;;-142.71;100.00;64517.53;3725334;37;21554;-59
2021/03/11 01:19:22;;;;;;;;;19.25;17.25;;;;;-142.71;100.00;64517.53;3725055;37;21546;-60
2021/03/11 01:21:49;;;;;;;;;19.25;16.75;;;;;-142.71;100.00;64517.53;3725228;38;21569;-59
2021/03/11 01:24:15;;;;;;;;;31.00;21.50;;;;;-142.71;100.00;64517.53;3725176;37;21562;-59
2021/03/11 01:26:43;;;;;;;;;24.25;21.00;;;;;-142.71;100.00;64517.53;3725332;38;21249;-60
2021/03/11 01:29:10;;;;;;;;;20.25;18.25;;;;;-142.71;100.00;64517.53;3725125;38;21251;-61
2021/03/11 01:31:37;;;;;;;;;28.75;25.50;;;;;-142.71;100.00;64517.53;3724951;37;21219;-59
2021/03/11 01:34:03;;;;;;;;;32.50;27.25;;;;;-142.71;100.00;64517.53;3725284;37;21242;-61
2021/03/11 01:36:35;;;;;;;;;41.50;35.25;;;;;-142.71;100.00;64517.53;3725472;38;21222;-61
2021/03/11 01:39:02;;;;;;;;;20.50;18.25;;;;;-142.71;100.00;64517.53;3724932;37;21237;-59
2021/03/11 01:43:59;;;;;;;;;36.75;32.75;;;;;-142.71;100.00;64517.53;3725264;37;20295;-61
2021/03/11 01:46:26;;;;;;;;;31.75;27.50;;;;;-142.71;100.00;64517.53;3725785;37;20345;-61
2021/03/11 01:48:58;;;;;;;;;23.25;17.75;;;;;-142.71;100.00;64517.53;3725708;37;20343;-60
2021/03/11 01:51:25;;;;;;;;;22.50;14.75;;;;;-142.71;100.00;64517.53;3725386;37;20320;-60
2021/03/11 01:53:52;;;;;;;;;22.00;19.50;;;;;-142.71;100.00;64517.53;3725730;37;20331;-61
2021/03/11 01:56:20;;;;;;;;;19.00;15.25;;;;;-142.71;100.00;64517.53;3725778;37;20334;-59
2021/03/11 01:58:47;;;;;;;;;26.00;21.00;;;;;-142.71;100.00;64517.53;3725519;37;20326;-60
2021/03/11 02:01:14;;;;;;;;;17.50;15.75;;;;;-142.71;100.00;64517.53;3725698;38;20322;-60
2021/03/11 02:03:42;;;;;;;;;20.25;18.50;;;;;-142.71;100.00;64517.53;3725987;37;20334;-59
2021/03/11 02:06:11;;;;;;;;;16.50;13.25;;;;;-142.71;100.00;64517.53;3725933;37;20318;-60
2021/03/11 02:08:37;;;;;;;;;18.25;17.00;;;;;-142.71;100.00;64517.53;3725822;38;20284;-61
2021/03/11 02:11:05;;;;;;;;;21.00;15.00;;;;;-142.71;100.00;64517.53;3725987;37;20296;-61
2021/03/11 02:13:47;;;;;;;;;19.50;15.00;;;;;-142.71;100.00;64517.53;3725461;38;20314;-58
2021/03/11 02:16:31;;;;;;;;;15.00;13.75;;;;;-142.71;100.00;64517.53;3725314;38;20319;-60
2021/03/11 02:19:38;;;;;;;;;22.25;17.25;;;;;-142.71;100.00;64517.53;3725408;37;20304;-59
2021/03/11 02:22:38;;;;;;;;;25.25;18.25;;;;;-142.71;100.00;64517.53;3725455;38;20299;-59
2021/03/11 02:25:31;;;;;;;;;19.75;16.00;;;;;-142.71;100.00;64517.53;3725377;37;20277;-58
2021/03/11 02:28:33;;;;;;;;;26.00;20.25;;;;;-142.71;100.00;64517.53;3725399;37;21132;-60
2021/03/11 02:31:01;;;;;;;;;27.50;15.00;;;;;-142.71;100.00;64517.53;3725960;37;21144;-60
2021/03/11 02:33:30;;;;;;;;;18.50;14.25;;;;;-142.71;100.00;64517.53;3726646;37;21131;-58
2021/03/11 02:36:07;;;;;;;;;20.00;16.00;;;;;-142.71;100.00;64517.53;3726817;37;21103;-59
2021/03/11 02:38:36;;;;;;;;;22.00;19.00;;;;;-142.71;100.00;64517.53;3725376;37;21119;-58
2021/03/11 02:41:04;;;;;;;;;17.50;15.00;;;;;-142.71;100.00;64517.53;3725459;38;21108;-60
2021/03/11 02:43:31;;;;;;;;;23.50;17.75;;;;;-142.71;100.00;64517.53;3725416;37;21111;-60
2021/03/11 02:46:00;;;;;;;;;13.25;13.00;;;;;-142.71;100.00;64517.53;3725350;37;21109;-60
2021/03/11 02:48:29;;;;;;;;;17.00;15.00;;;;;-142.71;100.00;64517.53;3725531;37;21099;-60
2021/03/11 02:50:58;;;;;;;;;21.25;20.75;;;;;-142.71;100.00;64517.53;3725420;37;21108;-59
2021/03/11 02:53:26;;;;;;;;;16.25;13.25;;;;;-142.71;100.00;64517.53;3725068;38;21109;-60
2021/03/11 02:55:56;;;;;;;;;22.25;17.25;;;;;-142.71;100.00;64517.53;3725855;37;21074;-60
2021/03/11 02:58:25;;;;;;;;;19.00;19.00;;;;;-142.71;100.00;64517.53;3726897;37;21106;-61
2021/03/11 03:00:52;;;;;;;;;21.25;15.25;;;;;-142.71;100.00;64517.53;3731191;38;21084;-60
2021/03/11 03:03:19;;;;;;;;;14.75;13.75;;;;;-142.71;100.00;64517.53;3734074;37;21093;-61
2021/03/11 03:05:50;;;;;;;;;20.25;16.75;;;;;-142.71;100.00;64517.53;3729305;37;21425;-60
2021/03/11 03:08:19;;;;;;;;;15.25;11.25;;;;;-142.71;100.00;64517.53;3725510;37;21158;-61
2021/03/11 03:10:49;;;;;;;;;15.75;15.50;;;;;-142.71;100.00;64517.53;3731914;37;21057;-60
2021/03/11 03:13:35;;;;;;;;;22.75;17.00;;;;;-142.71;100.00;64517.53;3735150;38;21090;-60
2021/03/11 03:16:02;;;;;;;;;22.50;16.00;;;;;-142.71;100.00;64517.53;3732643;37;21075;-61
2021/03/11 03:18:31;;;;;;;;;16.50;15.75;;;;;-142.71;100.00;64517.53;3725655;37;21079;-60
2021/03/11 03:21:03;;;;;;;;;18.75;17.50;;;;;-142.71;100.00;64517.53;3725065;38;21062;-59
2021/03/11 03:23:31;;;;;;;;;18.50;14.50;;;;;-142.71;100.00;64517.53;3725597;37;21068;-60
2021/03/11 03:26:17;;;;;;;;;24.25;23.00;;;;;-142.71;100.00;64517.53;3724813;38;21029;-60
2021/03/11 03:28:45;;;;;;;;;27.25;23.25;;;;;-142.71;100.00;64517.53;3725314;37;21057;-60
2021/03/11 03:31:12;;;;;;;;;33.00;26.25;;;;;-142.71;100.00;64517.53;3725290;37;21041;-60
2021/03/11 03:33:39;;;;;;;;;26.50;24.75;;;;;-142.71;100.00;64517.53;3725043;37;21050;-61
2021/03/11 03:36:08;;;;;;;;;18.25;16.25;;;;;-142.71;100.00;64517.53;3725301;37;21025;-60
2021/03/11 03:38:35;;;;;;;;;25.00;21.00;;;;;-142.71;100.00;64517.53;3725177;37;21015;-60
2021/03/11 03:41:07;;;;;;;;;36.25;26.75;;;;;-142.71;100.00;64517.53;3725458;37;21028;-59
2021/03/11 03:43:39;;;;;;;;;21.25;16.00;;;;;-142.71;100.00;64517.53;3725034;38;21046;-58
2021/03/11 03:46:14;;;;;;;;;25.50;19.25;;;;;-142.71;100.00;64517.53;3725475;37;21021;-61
2021/03/11 03:48:50;;;;;;;;;20.50;17.50;;;;;-142.71;100.00;64517.53;3725328;37;21021;-60
2021/03/11 03:51:21;;;;;;;;;22.75;19.25;;;;;-142.71;100.00;64517.53;3725455;37;21014;-61
2021/03/11 03:53:57;;;;;;;;;22.25;19.00;;;;;-142.71;100.00;64517.53;3725584;37;21028;-59
2021/03/11 03:56:40;;;;;;;;;31.75;24.75;;;;;-142.71;100.00;64517.53;3725248;37;20997;-58
2021/03/11 03:59:20;;;;;;;;;20.75;18.00;;;;;-142.71;100.00;64517.53;3725098;37;21002;-59
2021/03/11 04:01:52;;;;;;;;;23.50;20.75;;;;;-142.71;100.00;64517.53;3725970;38;21025;-59
2021/03/11 04:04:22;;;;;;;;;23.75;21.00;;;;;-142.71;100.00;64517.53;3726349;37;21014;-59
2021/03/11 04:06:49;;;;;;;;;25.50;24.00;;;;;-142.71;100.00;64517.53;3724974;37;21002;-60
2021/03/11 04:09:15;;;;;;;;;29.75;23.75;;;;;-142.71;100.00;64517.53;3725355;38;20986;-61
2021/03/11 04:11:46;;;;;;;;;37.25;28.25;;;;;-142.71;100.00;64517.53;3725316;38;21001;-60
2021/03/11 04:14:19;;;;;;;;;31.00;26.25;;;;;-142.71;100.00;64517.53;3725453;38;20996;-60
2021/03/11 04:16:54;;;;;;;;;28.00;24.00;;;;;-142.71;100.00;64517.53;3725438;37;21004;-60
2021/03/11 04:19:24;;;;;;;;;33.50;29.00;;;;;-142.71;100.00;64517.53;3725327;38;20971;-58
2021/03/11 04:21:51;;;;;;;;;32.75;23.50;;;;;-142.71;100.00;64517.53;3725309;38;21001;-60
2021/03/11 04:24:20;;;;;;;;;32.25;28.25;;;;;-142.71;100.00;64517.53;3725259;37;20988;-59
2021/03/11 04:26:49;;;;;;;;;28.50;23.75;;;;;-142.71;100.00;64517.53;3725524;37;20985;-59
2021/03/11 04:29:19;;;;;;;;;27.75;27.25;;;;;-142.71;100.00;64517.53;3725427;37;20957;-60
2021/03/11 04:31:45;;;;;;;;;54.50;34.50;;;;;-142.71;100.00;64517.53;3725778;37;20965;-60
2021/03/11 04:34:13;;;;;;;;;37.50;29.75;;;;;-142.71;100.00;64517.53;3726051;38;20995;-61
2021/03/11 04:36:41;;;;;;;;;47.75;38.75;;;;;-142.71;100.00;64517.53;3725848;37;20965;-60
2021/03/11 04:39:08;;;;;;;;;45.25;36.25;;;;;-142.71;100.00;64517.53;3725603;38;20957;-60
2021/03/11 04:41:36;;;;;;;;;40.25;30.50;;;;;-142.71;100.00;64517.53;3725700;38;20951;-61
2021/03/11 04:44:05;;;;;;;;;37.00;29.75;;;;;-142.71;100.00;64517.53;3725460;37;21023;-60
2021/03/11 04:46:33;;;;;;;;;46.25;38.50;;;;;-142.71;100.00;64517.53;3726022;37;20968;-61
2021/03/11 04:49:01;;;;;;;;;35.00;32.75;;;;;-142.71;100.00;64517.53;3725231;37;20958;-60
2021/03/11 04:51:28;;;;;;;;;33.50;26.75;;;;;-142.71;100.00;64517.53;3725943;38;20953;-61
2021/03/11 04:53:56;;;;;;;;;39.25;32.50;;;;;-142.71;100.00;64517.53;3726249;38;20941;-61
2021/03/11 04:56:24;;;;;;;;;27.50;24.25;;;;;-142.71;100.00;64517.53;3725734;38;20931;-60
2021/03/11 04:58:51;;;;;;;;;30.25;25.75;;;;;-142.71;100.00;64517.53;3724871;37;20918;-63
2021/03/11 05:01:22;;;;;;;;;63.50;47.50;;;;;-142.71;100.00;64517.53;3725568;38;20939;-60
2021/03/11 05:03:51;;;;;;;;;56.00;44.50;;;;;-142.71;100.00;64517.53;3725410;37;20938;-60
2021/03/11 05:06:18;;;;;;;;;50.50;40.50;;;;;-142.71;100.00;64517.53;3725061;37;20932;-61
2021/03/11 05:08:44;;;;;;;;;41.75;31.50;;;;;-142.71;100.00;64517.53;3724839;38;20939;-61
2021/03/11 05:11:14;;;;;;;;;52.75;43.25;;;;;-142.71;100.00;64517.53;3725425;37;20934;-61
2021/03/11 05:13:43;;;;;;;;;43.75;36.00;;;;;-142.71;100.00;64517.53;3725602;37;20948;-60
2021/03/11 05:16:14;;;;;;;;;41.75;36.00;;;;;-142.71;100.00;64517.53;3725650;37;20934;-60
2021/03/11 05:18:42;;;;;;;;;40.75;35.25;;;;;-142.71;100.00;64517.53;3725613;37;20908;-61
2021/03/11 05:21:11;;;;;;;;;31.00;26.50;;;;;-142.71;100.00;64517.53;3725257;37;20901;-60
2021/03/11 05:23:40;;;;;;;;;21.50;18.00;;;;;-142.71;100.00;64517.53;3726454;37;20917;-58
2021/03/11 05:26:06;;;;;;;;;29.75;22.25;;;;;-142.71;100.00;64517.53;3725727;37;20889;-60
2021/03/11 05:28:34;;;;;;;;;18.50;13.25;;;;;-142.71;100.00;64517.53;3725262;38;20897;-60
2021/03/11 05:31:00;;;;;;;;;40.75;33.50;;;;;-142.71;100.00;64517.53;3726153;37;20840;-61
2021/03/11 05:33:27;;;;;;;;;23.50;21.75;;;;;-142.71;100.00;64517.53;3725426;37;20913;-58
2021/03/11 05:35:54;;;;;;;;;27.00;21.00;;;;;-142.71;100.00;64517.53;3725325;38;20889;-60
2021/03/11 05:38:25;;;;;;;;;23.00;21.00;;;;;-142.71;100.00;64517.53;3725143;37;20873;-60
2021/03/11 05:40:57;;;;;;;;;27.50;18.75;;;;;-142.71;100.00;64517.53;3725767;38;20887;-60
2021/03/11 05:43:25;;;;;;;;;28.25;22.75;;;;;-142.71;100.00;64517.53;3725771;37;20896;-59
2021/03/11 05:45:54;;;;;;;;;30.50;21.25;;;;;-142.71;100.00;64517.53;3725722;37;20898;-67
2021/03/11 05:48:23;;;;;;;;;30.75;26.25;;;;;-142.71;100.00;64517.53;3725834;37;20890;-64
2021/03/11 05:50:52;;;;;;;;;29.75;23.25;;;;;-142.71;100.00;64517.53;3725443;38;21169;-65
2021/03/11 05:53:20;;;;;;;;;26.75;20.75;;;;;-142.71;100.00;64517.53;3725628;38;20865;-63
2021/03/11 05:55:47;;;;;;;;;33.25;24.50;;;;;-142.71;100.00;64517.53;3725489;38;20854;-63
2021/03/11 05:58:17;;;;;;;;;34.00;30.50;;;;;-142.71;100.00;64517.53;3726183;38;20877;-61
2021/03/11 06:00:51;;;;;;;;;29.00;24.50;;;;;-142.71;100.00;64517.53;3726021;38;20841;-62
2021/03/11 06:03:20;;;;;;;;;24.00;20.25;;;;;-142.71;100.00;64517.53;3725436;38;20838;-62
2021/03/11 06:05:48;;;;;;;;;17.00;16.75;;;;;-142.71;100.00;64517.53;3725842;37;20821;-61
2021/03/11 06:08:15;;;;;;;;;25.00;22.00;;;;;-142.71;100.00;64517.53;3725133;38;20838;-63
2021/03/11 06:10:43;;;;;;;;;21.75;20.00;;;;;-142.71;100.00;64517.53;3725099;38;20844;-65
2021/03/11 06:13:13;;;;;;;;;23.00;21.25;;;;;-142.71;100.00;64517.53;3725545;37;20825;-62
2021/03/11 06:15:49;;;;;;;;;25.25;22.50;;;;;-142.71;100.00;64517.53;3725165;38;20828;-65
2021/03/11 06:18:20;;;;;;;;;36.75;30.00;;;;;-142.71;100.00;64517.53;3724967;38;21022;-63
2021/03/11 06:20:48;;;;;;;;;47.75;38.00;;;;;-142.71;100.00;64517.53;3725398;38;20832;-62
2021/03/11 06:23:15;;;;;;;;;21.00;16.25;;;;;-142.71;100.00;64517.53;3724912;37;20846;-61
2021/03/11 06:25:42;;;;;;;;;27.25;19.50;;;;;-142.71;100.00;64517.53;3725111;38;20795;-63
2021/03/11 06:28:08;;;;;;;;;32.25;21.00;;;;;-142.71;100.00;64517.53;3725569;38;20759;-63
2021/03/11 06:30:36;;;;;;;;;28.50;23.25;;;;;-142.71;100.00;64517.53;3725361;37;20815;-63
2021/03/11 06:33:05;;;;;;;;;20.50;18.00;;;;;-142.71;100.00;64517.53;3725298;38;20809;-63
2021/03/11 06:35:33;;;;;;;;;28.25;21.00;;;;;-142.71;100.00;64517.53;3725499;37;20811;-61
2021/03/11 06:38:02;;;;;;;;;22.50;21.00;;;;;-142.71;100.00;64517.53;3725244;38;20812;-63
2021/03/11 06:40:39;;;;;;;;;29.00;24.25;;;;;-142.71;100.00;64517.53;3725414;38;20803;-58
2021/03/11 06:43:13;;;;;;;;;33.25;26.50;;;;;-142.71;100.00;64517.53;3725225;37;20813;-65
2021/03/11 06:45:41;;;;;;;;;23.50;18.75;;;;;-142.71;100.00;64517.53;3724913;38;20819;-62
2021/03/11 06:48:40;;;;;;;;;26.75;24.50;;;;;-142.71;100.00;64517.53;3726208;38;20800;-63
2021/03/11 06:51:16;;;;;;;;;24.25;19.50;;;;;-142.71;100.00;64517.53;3725458;37;20812;-62
2021/03/11 06:53:59;;;;;;;;;29.75;23.00;;;;;-142.71;100.00;64517.53;3725487;37;20790;-61
2021/03/11 06:56:28;;;;;;;;;26.50;24.00;;;;;-142.71;100.00;64517.53;3725633;37;20779;-60
2021/03/11 06:59:18;;;;;;;;;29.50;23.50;;;;;-142.71;100.00;64517.53;3728998;37;20770;-61
2021/03/11 07:01:52;;;;;;;;;23.75;17.75;;;;;-142.71;100.00;64517.53;3733868;38;20774;-64
2021/03/11 07:04:23;;;;;;;;;28.25;19.00;;;;;-142.71;100.00;64517.53;3734051;37;20702;-62
2021/03/11 07:06:50;;;;;;;;;31.25;23.25;;;;;-142.71;100.00;64517.53;3731359;37;20772;-61
2021/03/11 07:09:17;;;;;;;;;18.75;16.50;;;;;-142.71;100.00;64517.53;3728406;38;20779;-62
2021/03/11 07:11:54;;;;;;;;;25.75;16.75;;;;;-142.71;100.00;64517.53;3726464;38;20746;-61
2021/03/11 07:14:32;;;;;;;;;22.75;16.50;;;;;-142.71;100.00;64517.53;3726342;37;20760;-61
2021/03/11 07:17:19;;;;;;;;;24.00;21.00;;;;;-142.71;100.00;64517.53;3726719;38;20733;-60
2021/03/11 07:20:22;;;;;;;;;22.50;19.25;;;;;-142.71;100.00;64517.53;3725601;38;20722;-58
2021/03/11 07:23:21;;;;;;;;;20.75;18.75;;;;;-142.71;100.00;64517.53;3725803;38;20737;-59
2021/03/11 07:25:53;;;;;;;;;25.25;23.25;;;;;-142.71;100.00;64517.53;3726161;37;20728;-65
2021/03/11 07:28:32;;;;;;;;;19.00;14.50;;;;;-142.71;100.00;64517.53;3725840;38;20751;-64
2021/03/11 07:31:00;;;;;;;;;28.50;25.00;;;;;-142.71;100.00;64517.53;3725589;38;20733;-68
2021/03/11 07:33:28;;;;;;;;;22.50;21.00;;;;;-142.71;100.00;64517.53;3725694;38;20734;-62
2021/03/11 07:35:57;;;;;;;;;23.75;17.50;;;;;-142.71;100.00;64517.53;3725770;37;20728;-65
2021/03/11 07:38:25;;;;;;;;;27.25;25.00;;;;;-142.71;100.00;64517.53;3725812;38;20711;-64
2021/03/11 07:40:54;;;;;;;;;9.50;9.00;;;;;-142.71;100.00;64517.53;3725900;37;20736;-67
2021/03/11 07:43:23;;;;;;;;;25.25;23.00;;;;;-142.71;100.00;64517.53;3725372;38;20670;-64
2021/03/11 07:45:49;;;;;;;;;32.00;29.50;;;;;-142.71;100.00;64517.53;3725589;37;20714;-65
2021/03/11 07:48:16;;;;;;;;;28.00;21.50;;;;;-142.71;100.00;64517.53;3725557;37;20714;-66
2021/03/11 07:50:44;;;;;;;;;24.75;21.25;;;;;-142.71;100.00;64517.53;3725601;37;20722;-62
2021/03/11 07:53:11;;;;;;;;;24.00;18.00;;;;;-142.71;100.00;64517.53;3725467;37;20715;-61
2021/03/11 07:55:39;;;;;;;;;26.00;19.75;;;;;-142.71;100.00;64517.53;3725298;38;20673;-63
2021/03/11 07:58:09;;;;;;;;;26.25;19.75;;;;;-142.71;100.00;64517.53;3725087;38;20698;-63
2021/03/11 08:00:37;;;;;;;;;27.00;19.00;;;;;-142.71;100.00;64517.53;3725355;38;20700;-63
2021/03/11 08:03:10;;;;;;;;;27.00;21.75;;;;;-142.71;100.00;64517.53;3724803;38;20694;-64
2021/03/11 08:05:37;;;;;;;;;34.50;24.25;;;;;-142.71;100.00;64517.53;3725035;37;20690;-64
2021/03/11 08:08:20;;;;;;;;;41.50;28.75;;;;;-142.71;100.00;64517.53;3725829;37;20707;-63
2021/03/11 08:11:00;;;;;;;;;21.00;17.00;;;;;-142.71;100.00;64517.53;3725828;38;20683;-63
2021/03/11 08:13:38;;;;;;;;;29.50;22.25;;;;;-142.71;100.00;64517.53;3725232;37;20555;-65
2021/03/11 08:16:30;;;;;;;;;26.00;22.00;;;;;-142.71;100.00;64517.53;3725484;38;20672;-65
2021/03/11 08:18:57;;;;;;;;;22.00;19.00;;;;;-142.71;100.00;64517.53;3725838;37;20647;-63
2021/03/11 08:21:50;;;;;;;;;22.75;17.75;;;;;-142.71;100.00;64517.53;3724212;37;20570;-66
2021/03/11 08:24:46;;;;;;;;;18.00;17.50;;;;;-142.71;100.00;64517.53;3725066;38;20629;-62
2021/03/11 08:27:51;;;;;;;;;17.50;14.50;;;;;-142.71;100.00;64517.53;3725101;37;20636;-66
2021/03/11 08:30:54;;;;;;;;;16.25;15.00;;;;;-142.71;100.00;64517.53;3724820;38;20530;-63
2021/03/11 08:33:42;;;;;;;;;16.75;14.00;;;;;-142.71;100.00;64517.53;3726087;37;20550;-63
2021/03/11 08:36:33;;;;;;;;;15.50;11.00;;;;;-142.71;100.00;64517.53;3724996;38;20481;-60
2021/03/11 08:39:00;;;;;;;;;15.75;13.00;;;;;-142.71;100.00;64517.53;3726327;38;20495;-64
2021/03/11 08:41:31;;;;;;;;;15.00;14.25;;;;;-142.71;100.00;64517.53;3726854;38;20542;-59
2021/03/11 08:43:58;;;;;;;;;10.25;10.00;;;;;-142.71;100.00;64517.53;3725871;38;20516;-64
2021/03/11 08:46:51;;;;;;;;;17.25;13.75;;;;;-142.71;100.00;64517.53;3725978;38;20480;-64
2021/03/11 08:49:41;;;;;;;;;15.00;13.00;;;;;-142.71;100.00;64517.53;3725000;38;20525;-65
2021/03/11 08:52:30;;;;;;;;;20.00;16.75;;;;;-142.71;100.00;64517.53;3725850;37;20536;-64
2021/03/11 08:55:29;;;;;;;;;21.00;15.50;;;;;-142.71;100.00;64517.53;3725365;37;20521;-63
2021/03/11 08:57:57;;;;;;;;;23.25;18.75;;;;;-142.71;100.00;64517.53;3725646;38;20521;-65
2021/03/11 09:01:01;;;;;;;;;26.25;21.75;;;;;-142.71;100.00;64517.53;3725663;38;20549;-63
2021/03/11 09:03:57;;;;;;;;;18.00;17.00;;;;;-142.71;100.00;64517.53;3725183;37;20517;-63
2021/03/11 09:06:57;;;;;;;;;13.25;11.25;;;;;-142.71;100.00;64517.53;3725723;38;20498;-61
2021/03/11 09:09:51;;;;;;;;;10.75;10.75;;;;;-142.71;100.00;64517.53;3724804;37;20492;-60
2021/03/11 09:12:36;;;;;;;;;19.75;17.75;;;;;-142.71;100.00;64517.53;3725032;37;20299;-61
2021/03/11 09:15:08;;;;;;;;;35.50;32.75;;;;;-142.71;100.00;64517.53;3725592;38;21475;-60
2021/03/11 09:17:36;;;;;;;;;16.00;14.75;;;;;-142.71;100.00;64517.53;3725270;37;20590;-61
2021/03/11 09:20:11;;;;;;;;;34.25;27.25;;;;;-142.71;100.00;64517.53;3725092;37;20490;-61
2021/03/11 09:22:43;;;;;;;;;20.00;17.25;;;;;-142.71;100.00;64517.53;3725536;38;21588;-61
2021/03/11 09:25:16;;;;;;;;;14.25;14.25;;;;;-142.71;100.00;64517.53;3725037;38;21456;-61
2021/03/11 09:27:59;;;;;;;;;12.75;11.25;;;;;-142.71;100.00;64517.53;3724666;38;21421;-62
2021/03/11 09:30:38;;;;;;;;;16.25;14.75;;;;;-142.71;100.00;64517.53;3725643;38;21425;-61
2021/03/11 09:33:11;;;;;;;;;15.50;13.25;;;;;-142.71;100.00;64517.53;3725271;38;21431;-62
2021/03/11 09:35:39;;;;;;;;;11.50;11.00;;;;;-142.71;100.00;64517.53;3725874;37;21302;-62
2021/03/11 09:38:06;;;;;;;;;17.00;15.25;;;;;-142.71;100.00;64517.53;3725884;38;21412;-62
2021/03/11 09:40:46;;;;;;;;;10.50;9.00;;;;;-142.71;100.00;64517.53;3726104;37;21461;-61
2021/03/11 09:43:20;;;;;;;;;16.25;11.75;;;;;-142.71;100.00;64517.53;3725149;37;21389;-62
2021/03/11 09:46:00;;;;;;;;;16.00;13.25;;;;;-142.71;100.00;64517.53;3725403;37;21509;-62
2021/03/11 09:48:41;;;;;;;;;16.25;15.75;;;;;-142.71;100.00;64517.53;3725562;38;21558;-60
2021/03/11 09:51:26;;;;;;;;;21.75;17.00;;;;;-142.71;100.00;64517.53;3725666;38;21549;-61
2021/03/11 09:54:11;;;;;;;;;17.00;12.50;;;;;-142.71;100.00;64517.53;3724983;37;21463;-61
2021/03/11 09:56:44;;;;;;;;;15.00;13.50;;;;;-142.71;100.00;64517.53;3725830;37;21432;-62
2021/03/11 09:59:14;;;;;;;;;15.75;12.50;;;;;-142.71;100.00;64517.53;3725484;38;21362;-60
2021/03/11 10:01:49;;;;;;;;;10.50;7.75;;;;;-142.71;100.00;64517.53;3725647;37;21752;-60
2021/03/11 10:04:24;;;;;;;;;21.25;19.00;;;;;-142.71;100.00;64517.53;3725270;38;21333;-61
2021/03/11 10:06:56;;;;;;;;;19.25;16.50;;;;;-142.71;100.00;64517.53;3724857;37;21423;-60
2021/03/11 10:09:25;;;;;;;;;18.50;15.75;;;;;-142.71;100.00;64517.53;3725458;37;21425;-62
2021/03/11 10:11:54;;;;;;;;;17.00;13.00;;;;;-142.71;100.00;64517.53;3725781;38;21411;-60
2021/03/11 10:14:29;;;;;;;;;18.50;16.50;;;;;-142.71;100.00;64517.53;3725590;38;21341;-59
2021/03/11 10:17:01;;;;;;;;;20.50;17.00;;;;;-142.71;100.00;64517.53;3725841;38;21427;-60
2021/03/11 10:19:33;;;;;;;;;16.25;13.25;;;;;-142.71;100.00;64517.53;3725096;37;21380;-60
2021/03/11 10:22:04;;;;;;;;;17.25;15.75;;;;;-142.71;100.00;64517.53;3725927;37;21385;-61
2021/03/11 10:24:50;;;;;;;;;22.00;18.50;;;;;-142.71;100.00;64517.53;3725782;37;21395;-62
2021/03/11 10:27:28;;;;;;;;;17.00;14.50;;;;;-142.71;100.00;64517.53;3725360;37;21382;-60
2021/03/11 10:30:27;;;;;;;;;17.00;15.75;;;;;-142.71;100.00;64517.53;3725657;38;21378;-62
2021/03/11 10:33:03;;;;;;;;;21.50;15.25;;;;;-142.71;100.00;64517.53;3725571;37;21400;-63
2021/03/11 10:35:49;;;;;;;;;15.50;12.00;;;;;-142.71;100.00;64517.53;3725490;37;21367;-61
2021/03/11 10:38:20;;;;;;;;;18.25;13.50;;;;;-142.71;100.00;64517.53;3725825;38;21395;-62
2021/03/11 10:40:49;;;;;;;;;16.50;10.50;;;;;-142.71;100.00;64517.53;3726872;38;21378;-62
2021/03/11 10:43:23;;;;;;;;;12.50;12.00;;;;;-142.71;100.00;64517.53;3726367;38;21356;-59
2021/03/11 10:45:50;;;;;;;;;19.25;14.50;;;;;-142.71;100.00;64517.53;3727429;38;21307;-60
2021/03/11 10:48:17;;;;;;;;;22.50;17.25;;;;;-142.71;100.00;64517.53;3726449;37;21356;-60
2021/03/11 10:50:49;;;;;;;;;15.25;13.00;;;;;-142.71;100.00;64517.53;3736441;38;21347;-61
2021/03/11 10:53:19;;;;;;;;;14.50;12.50;;;;;-142.71;100.00;64517.53;3735503;38;21297;-59
2021/03/11 10:55:49;;;;;;;;;14.25;11.50;;;;;-142.71;100.00;64517.53;3726457;37;21307;-60
2021/03/11 10:58:23;;;;;;;;;15.00;12.25;;;;;-142.71;100.00;64517.53;3734153;38;21387;-59
2021/03/11 11:00:51;;;;;;;;;15.75;12.75;;;;;-142.71;100.00;64517.53;3735297;37;21306;-60
2021/03/11 11:03:21;;;;;;;;;13.25;13.25;;;;;-142.71;100.00;64517.53;3731960;37;21334;-60
2021/03/11 11:05:48;;;;;;;;;17.00;16.25;;;;;-142.71;100.00;64517.53;3725880;37;21287;-60
2021/03/11 11:08:16;;;;;;;;;8.00;8.00;;;;;-142.71;100.00;64517.53;3725405;38;21302;-59
2021/03/11 11:10:45;;;;;;;;;12.00;9.00;;;;;-142.71;100.00;64517.53;3725596;37;21135;-61
2021/03/11 11:13:12;;;;;;;;;14.00;13.00;;;;;-142.71;100.00;64517.53;3725766;38;21278;-61
2021/03/11 11:15:38;;;;;;;;;19.00;17.00;;;;;-142.71;100.00;64517.53;3725281;38;21311;-62
2021/03/11 11:18:06;;;;;;;;;15.75;14.75;;;;;-142.71;100.00;64517.53;3725454;37;21320;-61
2021/03/11 11:20:36;;;;;;;;;14.75;13.00;;;;;-142.71;100.00;64517.53;3725276;37;21306;-60